Time;durP1;ratioP1;P1;durP2;ratioP2;P2;SDS_P1;SDS_P2;PMS_P1;PMS_P2;Temp;Humidity;BMP_temperature;BMP_pressure;BME280_temperature;BME280_humidity;BME280_pressure;Samples;Min_cycle;Max_cycle;Signal;HPM_P1;HPM_P2
2022/01/02 00:02:23;;;;;;;7.20;4.70;;;;;;;8.93;78.57;100684.22;8550561;33;20144;-78
2022/01/02 00:07:27;;;;;;;9.18;5.40;;;;;;;8.97;78.28;100689.28;8553978;33;20929;-78
2022/01/02 00:12:33;;;;;;;7.75;4.72;;;;;;;9.01;78.41;100687.22;8562057;33;20872;-77
2022/01/02 00:17:39;;;;;;;9.10;4.60;;;;;;;9.18;78.09;100670.81;8572635;33;20426;-77
2022/01/02 00:22:48;;;;;;;6.07;4.10;;;;;;;9.37;77.16;100662.31;8568032;33;20960;-77
2022/01/02 00:27:53;;;;;;;7.88;4.40;;;;;;;9.46;76.54;100663.47;8566153;33;20193;-78
2022/01/02 00:32:58;;;;;;;6.05;4.07;;;;;;;9.57;76.41;100650.19;8544513;33;20144;-78
2022/01/02 00:38:01;;;;;;;6.18;3.80;;;;;;;9.56;75.86;100636.88;8570068;33;20245;-78
2022/01/02 00:43:06;;;;;;;5.85;4.03;;;;;;;9.63;75.51;100614.00;8570857;33;20326;-77
2022/01/02 00:48:16;;;;;;;5.93;4.30;;;;;;;9.68;75.29;100622.53;8572504;33;20286;-77
2022/01/02 00:53:21;;;;;;;4.72;3.38;;;;;;;9.70;75.13;100620.59;8557845;33;20140;-77
2022/01/02 00:58:32;;;;;;;7.60;4.00;;;;;;;9.77;75.00;100615.66;8565836;33;20213;-78
2022/01/02 01:03:36;;;;;;;6.68;4.05;;;;;;;9.77;74.40;100608.47;8539385;33;20148;-77
2022/01/02 01:08:41;;;;;;;6.40;4.30;;;;;;;9.73;74.70;100606.97;8531356;33;20435;-77
2022/01/02 01:13:44;;;;;;;4.53;3.10;;;;;;;9.87;74.15;100593.44;8531228;33;20236;-77
2022/01/02 01:18:49;;;;;;;2.63;2.40;;;;;;;10.28;72.14;100605.53;8529096;33;20950;-77
2022/01/02 01:23:52;;;;;;;3.28;2.10;;;;;;;10.61;70.38;100612.84;8522374;33;20568;-77
2022/01/02 01:28:56;;;;;;;5.28;2.25;;;;;;;10.75;69.43;100611.78;8526065;33;20459;-77
2022/01/02 01:34:01;;;;;;;3.40;2.58;;;;;;;10.92;68.60;100618.50;8525650;33;20426;-77
2022/01/02 01:39:04;;;;;;;3.58;2.30;;;;;;;10.95;68.41;100587.84;8548380;33;20218;-77
2022/01/02 01:44:26;;;;;;;4.00;2.50;;;;;;;10.83;68.63;100598.59;8524639;33;20724;-77
2022/01/02 01:49:32;;;;;;;2.63;2.10;;;;;;;10.97;67.92;100610.06;8524409;33;20474;-77
2022/01/02 01:54:36;;;;;;;3.75;2.22;;;;;;;11.05;67.79;100602.25;8524303;33;20435;-77
2022/01/02 01:59:39;;;;;;;2.97;2.45;;;;;;;11.09;67.90;100605.56;8542849;33;20450;-78
2022/01/02 02:04:44;;;;;;;4.05;2.50;;;;;;;10.96;68.03;100611.91;8536450;33;20179;-77
2022/01/02 02:10:03;;;;;;;3.25;2.35;;;;;;;10.96;67.58;100621.78;8538721;33;22463;-77
2022/01/02 02:15:13;;;;;;;3.42;2.42;;;;;;;11.20;67.11;100625.25;8535732;33;20163;-78
2022/01/02 02:20:21;;;;;;;4.40;2.30;;;;;;;11.27;66.95;100629.19;8540852;33;20239;-77
2022/01/02 02:25:27;;;;;;;4.78;2.45;;;;;;;11.08;67.66;100618.16;8543756;33;20136;-78
2022/01/02 02:30:33;;;;;;;4.45;2.38;;;;;;;10.88;67.86;100625.09;8571364;33;20456;-77
2022/01/02 02:35:41;;;;;;;3.17;2.45;;;;;;;11.06;68.15;100618.25;8541784;33;20144;-78
2022/01/02 02:40:44;;;;;;;3.05;2.33;;;;;;;10.88;68.87;100622.38;8558508;33;20205;-77
2022/01/02 02:51:13;;;;;;;4.90;2.30;;;;;;;10.59;71.40;100606.72;8556634;33;20285;-77
2022/01/02 02:56:20;;;;;;;4.80;2.90;;;;;;;10.61;71.36;100603.91;8530533;33;20504;-77
2022/01/02 03:01:27;;;;;;;3.85;2.65;;;;;;;10.61;72.06;100588.66;8554971;33;20159;-77
2022/01/02 03:06:34;;;;;;;5.03;2.90;;;;;;;10.34;73.35;100580.91;8535010;33;20480;-77
2022/01/02 03:11:40;;;;;;;5.15;3.05;;;;;;;10.23;74.39;100586.25;8556407;33;20425;-77
2022/01/02 03:16:43;;;;;;;4.80;2.65;;;;;;;10.08;74.97;100590.09;8522087;33;20452;-76
2022/01/02 03:21:48;;;;;;;4.82;3.40;;;;;;;9.87;75.32;100593.44;8524401;33;20467;-77
2022/01/02 03:26:51;;;;;;;6.10;3.03;;;;;;;10.16;74.91;100609.16;8555082;33;20159;-77
2022/01/02 03:31:54;;;;;;;4.28;3.33;;;;;;;10.03;75.46;100584.22;8547922;33;20583;-78
2022/01/02 03:37:00;;;;;;;6.53;3.05;;;;;;;9.86;76.00;100564.88;8557485;33;20136;-77
2022/01/02 03:42:06;;;;;;;4.88;3.22;;;;;;;9.95;76.06;100547.22;8523353;33;20403;-77
2022/01/02 03:47:10;;;;;;;3.83;3.00;;;;;;;9.98;76.87;100527.34;8525776;33;20164;-78
2022/01/02 03:52:15;;;;;;;6.38;3.33;;;;;;;9.86;77.19;100532.69;8550748;33;20460;-77
2022/01/02 03:57:18;;;;;;;5.10;3.10;;;;;;;9.71;77.97;100523.94;8548457;33;20187;-78
2022/01/02 04:02:21;;;;;;;5.47;3.38;;;;;;;9.67;77.87;100516.22;8523667;33;20421;-76
2022/01/02 04:07:27;;;;;;;5.65;3.42;;;;;;;9.64;78.10;100495.00;8548615;33;20455;-77
2022/01/02 04:12:30;;;;;;;7.68;3.60;;;;;;;9.71;78.69;100464.94;8532040;33;20148;-77
2022/01/02 04:17:33;;;;;;;6.75;3.60;;;;;;;9.59;80.07;100451.59;8563561;33;20136;-78
2022/01/02 04:22:39;;;;;;;5.07;3.42;;;;;;;9.42;81.05;100464.44;8586789;33;20158;-78
2022/01/02 04:27:42;;;;;;;6.05;4.20;;;;;;;9.45;81.09;100482.97;8564246;33;20452;-78
2022/01/02 04:32:48;;;;;;;6.47;3.30;;;;;;;9.37;81.10;100471.13;8576898;33;20152;-77
2022/01/02 04:37:54;;;;;;;8.32;3.45;;;;;;;9.24;81.86;100465.78;8551460;33;20461;-78
2022/01/02 04:42:57;;;;;;;8.75;3.72;;;;;;;9.35;81.88;100468.56;8572710;33;21603;-78
2022/01/02 04:48:00;;;;;;;6.72;3.72;;;;;;;9.29;82.19;100460.97;8573275;33;20688;-77
2022/01/02 04:53:07;;;;;;;6.72;3.35;;;;;;;9.36;81.96;100451.50;8573141;33;20148;-77
2022/01/02 04:58:10;;;;;;;7.10;3.50;;;;;;;9.41;81.65;100453.84;8549377;33;20198;-77
2022/01/02 05:03:13;;;;;;;8.63;3.70;;;;;;;9.36;81.69;100443.47;8551043;33;21001;-77
2022/01/02 05:08:18;;;;;;;6.68;3.90;;;;;;;9.35;82.34;100431.03;8584629;33;20218;-79
2022/01/02 05:13:22;;;;;;;5.78;4.10;;;;;;;9.40;82.07;100436.88;8580733;33;20455;-78
2022/01/02 05:18:26;;;;;;;9.15;4.05;;;;;;;9.44;81.76;100422.28;8553395;33;20428;-78
2022/01/02 05:23:31;;;;;;;7.97;3.65;;;;;;;9.47;81.61;100435.44;8553184;33;20418;-78
2022/01/02 05:28:34;;;;;;;6.82;4.00;;;;;;;9.43;81.27;100425.91;8558389;33;22197;-78
2022/01/02 05:33:38;;;;;;;6.63;3.92;;;;;;;9.47;81.68;100408.63;8560343;33;20641;-78
2022/01/02 05:38:42;;;;;;;6.63;3.92;;;;;;;9.33;82.22;100421.41;8556268;33;20277;-78
2022/01/02 05:43:46;;;;;;;5.93;3.70;;;;;;;9.40;82.78;100409.22;8556135;33;20404;-78
2022/01/02 05:48:50;;;;;;;8.98;3.80;;;;;;;9.46;83.33;100414.09;8577182;33;20187;-77
2022/01/02 05:53:55;;;;;;;6.00;3.80;;;;;;;9.39;83.99;100416.41;8563525;33;20535;-78
2022/01/02 05:58:58;;;;;;;6.40;4.55;;;;;;;9.48;84.04;100414.84;8561007;33;20929;-78
2022/01/02 06:04:02;;;;;;;7.03;3.72;;;;;;;9.51;84.19;100407.41;8585378;33;20217;-78
2022/01/02 06:09:06;;;;;;;11.20;3.63;;;;;;;9.55;84.80;100400.03;8557836;33;20750;-78
2022/01/02 06:14:13;;;;;;;9.27;4.00;;;;;;;9.61;85.02;100396.00;8581678;33;20175;-78
2022/01/02 06:19:16;;;;;;;11.02;4.10;;;;;;;9.53;85.46;100368.94;8564408;33;20239;-79
2022/01/02 06:24:21;;;;;;;7.25;3.88;;;;;;;9.63;85.30;100372.63;8563908;33;20779;-78
2022/01/02 06:29:24;;;;;;;6.05;3.50;;;;;;;9.74;85.46;100378.00;8588611;33;20164;-79
2022/01/02 06:34:28;;;;;;;8.13;3.30;;;;;;;9.84;85.21;100372.75;8594833;33;20449;-78
2022/01/02 06:39:33;;;;;;;8.98;4.10;;;;;;;9.85;84.96;100369.97;8587546;33;20185;-78
2022/01/02 06:44:37;;;;;;;11.65;3.80;;;;;;;9.90;85.26;100370.50;8564247;33;20409;-78
2022/01/02 06:49:42;;;;;;;8.65;4.03;;;;;;;9.82;85.60;100369.34;8583630;33;20602;-79
2022/01/02 06:54:46;;;;;;;5.45;3.50;;;;;;;9.81;86.47;100352.38;8562117;33;20154;-79
2022/01/02 06:59:50;;;;;;;7.40;4.05;;;;;;;9.82;86.85;100350.56;8564355;33;20419;-80
2022/01/02 07:04:54;;;;;;;11.63;4.07;;;;;;;9.82;87.49;100343.38;8569289;33;20241;-79
2022/01/02 07:09:59;;;;;;;9.83;3.57;;;;;;;9.82;87.79;100340.69;8594795;33;20558;-79
2022/01/02 07:15:02;;;;;;;6.03;4.00;;;;;;;9.89;87.88;100307.06;8573797;33;20190;-79
2022/01/02 07:20:07;;;;;;;8.80;3.85;;;;;;;9.88;87.91;100300.00;8569073;33;20567;-79
2022/01/02 07:25:12;;;;;;;6.75;3.60;;;;;;;9.83;88.36;100296.78;8564463;33;20544;-79
2022/01/02 07:30:15;;;;;;;7.03;3.67;;;;;;;9.90;87.88;100289.13;8566081;33;20642;-79
2022/01/02 07:35:22;;;;;;;7.07;3.85;;;;;;;9.93;88.15;100268.28;8563482;33;20144;-79
2022/01/02 07:40:26;;;;;;;7.75;4.03;;;;;;;9.92;87.61;100273.75;8563260;33;20529;-79
2022/01/02 07:45:30;;;;;;;9.02;4.18;;;;;;;9.96;87.93;100269.88;8560681;33;20532;-79
2022/01/02 07:50:33;;;;;;;9.30;3.53;;;;;;;10.02;87.77;100249.75;8580880;33;20144;-79
2022/01/02 07:55:37;;;;;;;5.47;3.63;;;;;;;10.04;87.80;100242.41;8542325;33;20166;-79
2022/01/02 08:00:40;;;;;;;8.80;3.95;;;;;;;10.06;88.00;100225.19;8540679;33;20530;-78
2022/01/02 08:05:44;;;;;;;8.07;4.53;;;;;;;10.03;87.82;100224.59;8567298;33;20420;-78
2022/01/02 08:10:48;;;;;;;6.57;3.33;;;;;;;10.01;88.31;100183.63;8565865;33;20262;-78
2022/01/02 08:15:51;;;;;;;5.72;3.65;;;;;;;10.03;88.28;100130.69;8565034;33;20649;-78
2022/01/02 08:20:55;;;;;;;7.20;3.92;;;;;;;10.07;88.50;100138.34;8566069;33;20411;-78
2022/01/02 08:26:00;;;;;;;7.57;3.33;;;;;;;10.03;88.35;100174.47;8566119;33;20926;-78
2022/01/02 08:31:03;;;;;;;10.90;4.30;;;;;;;10.03;88.30;100157.50;8566838;33;20432;-78
2022/01/02 08:36:06;;;;;;;7.90;4.03;;;;;;;10.06;88.40;100138.47;8560190;33;20435;-78
2022/01/02 08:41:11;;;;;;;7.53;4.22;;;;;;;10.06;88.01;100123.22;8558539;33;20440;-78
2022/01/02 08:46:14;;;;;;;13.50;4.10;;;;;;;10.00;87.77;100125.56;8554810;33;20133;-77
2022/01/02 08:51:17;;;;;;;5.65;3.67;;;;;;;10.05;87.29;100118.84;8548513;33;20152;-76
2022/01/02 08:56:21;;;;;;;10.50;3.85;;;;;;;10.21;86.05;100106.84;8537748;33;20160;-75
2022/01/02 09:01:24;;;;;;;9.23;4.05;;;;;;;10.36;85.16;100097.47;8521401;33;21247;-75
2022/01/02 09:11:26;;;;;;;8.27;3.72;;;;;;;10.41;84.32;100076.44;8736297;32;20524;-76
2022/01/02 09:16:29;;;;;;;7.95;4.03;;;;;;;10.42;84.07;100056.66;8662639;32;20137;-75
2022/01/02 09:21:32;;;;;;;8.18;3.35;;;;;;;10.36;83.55;100017.78;8680037;33;20718;-76
2022/01/02 09:26:37;;;;;;;7.13;3.33;;;;;;;10.52;82.44;99995.81;8680616;33;20609;-76
2022/01/02 09:31:40;;;;;;;8.70;3.63;;;;;;;10.56;82.14;99993.75;8680288;33;20662;-76
2022/01/02 09:36:43;;;;;;;7.88;3.65;;;;;;;10.77;82.02;100010.63;8671556;33;20184;-76
2022/01/02 09:41:48;;;;;;;9.35;3.70;;;;;;;10.60;82.43;100011.28;8679928;33;20758;-76
2022/01/02 09:46:54;;;;;;;10.82;3.42;;;;;;;10.28;85.14;99985.38;8681831;33;20217;-75
2022/01/02 09:51:57;;;;;;;8.43;3.17;;;;;;;10.43;84.58;99942.09;8679327;33;20443;-76
2022/01/02 09:57:01;;;;;;;5.93;3.20;;;;;;;10.57;83.21;99925.59;8679770;33;20179;-75
2022/01/02 10:02:05;;;;;;;8.32;3.45;;;;;;;10.81;81.58;99923.41;8681682;33;22045;-75
2022/01/02 10:07:28;;;;;;;12.68;3.42;;;;;;;10.81;80.00;99930.63;8678396;33;20156;-76
2022/01/02 10:12:33;;;;;;;8.35;3.00;;;;;;;11.06;78.67;99937.34;8682047;33;20223;-75
2022/01/02 10:18:13;;;;;;;8.52;2.45;;;;;;;11.01;78.07;99928.84;8657380;33;20212;-75
2022/01/02 10:23:19;;;;;;;8.30;3.05;;;;;;;11.31;76.70;99946.75;8630994;33;20459;-76
2022/01/02 10:28:43;;;;;;;8.05;3.03;;;;;;;11.41;77.00;99919.84;8660256;33;20211;-76
2022/01/02 10:33:50;;;;;;;7.68;2.95;;;;;;;11.38;77.00;99904.88;8658847;33;20180;-76
2022/01/02 10:39:10;;;;;;;3.42;2.35;;;;;;;11.43;75.79;99902.59;8648975;33;20184;-76
2022/01/02 10:44:26;;;;;;;5.93;2.97;;;;;;;11.57;76.01;99887.84;8645590;33;20184;-75
2022/01/02 10:49:48;;;;;;;6.88;2.75;;;;;;;11.73;74.17;99885.44;8656819;33;20984;-75
2022/01/02 10:54:52;;;;;;;4.50;2.72;;;;;;;11.66;73.92;99870.88;8547182;33;20678;-76
2022/01/02 10:59:59;;;;;;;11.32;2.47;;;;;;;11.76;72.62;99883.44;8658582;33;20218;-75
2022/01/02 11:05:07;;;;;;;7.20;2.88;;;;;;;11.86;72.32;99895.91;8662565;33;20222;-76
2022/01/02 11:10:14;;;;;;;5.93;2.80;;;;;;;11.79;71.33;99896.63;8661039;33;20456;-75
2022/01/02 11:15:21;;;;;;;4.97;2.75;;;;;;;11.28;71.98;99907.53;8661382;33;20921;-76
2022/01/02 11:20:28;;;;;;;5.10;2.83;;;;;;;11.49;71.93;99914.63;8661144;33;20168;-75
2022/01/02 11:25:38;;;;;;;6.85;3.17;;;;;;;10.95;75.92;99897.16;8636532;33;20161;-75
2022/01/02 11:30:43;;;;;;;7.75;3.28;;;;;;;10.26;81.25;99873.75;8660449;33;20531;-75
2022/01/02 11:35:48;;;;;;;3.80;2.88;;;;;;;9.59;83.00;99900.00;8661654;33;20194;-74
2022/01/02 11:41:00;;;;;;;5.55;2.80;;;;;;;9.63;82.04;99905.97;8660539;33;20164;-75
2022/01/02 11:46:18;;;;;;;3.40;2.25;;;;;;;10.25;77.79;99904.25;8659877;33;20156;-76
2022/01/02 11:52:14;;;;;;;3.45;2.13;;;;;;;10.43;76.43;99891.06;8691187;33;20187;-75
2022/01/02 11:57:47;;;;;;;5.10;2.67;;;;;;;10.54;75.40;99880.22;8604319;33;20308;-75
2022/01/02 12:02:52;;;;;;;6.50;2.90;;;;;;;10.80;74.54;99883.25;8546403;33;20135;-74
2022/01/02 12:07:55;;;;;;;3.65;3.15;;;;;;;12.14;70.88;99842.13;8545889;33;21395;-73
2022/01/02 12:13:20;;;;;;;4.80;2.70;;;;;;;12.75;67.89;99846.97;8552001;33;22460;-73
2022/01/02 12:18:28;;;;;;;3.55;2.47;;;;;;;12.84;66.81;99845.22;8632229;33;21869;-76
2022/01/02 12:23:54;;;;;;;5.20;3.10;;;;;;;12.78;66.85;99843.97;8651286;33;20149;-76
2022/01/02 12:29:01;;;;;;;5.40;2.53;;;;;;;12.43;66.66;99836.66;8632997;33;20180;-76
2022/01/02 12:34:13;;;;;;;3.45;2.60;;;;;;;12.80;65.94;99843.81;8636843;33;20190;-75
2022/01/02 12:39:25;;;;;;;8.45;3.78;;;;;;;12.08;67.97;99848.09;8658472;33;20370;-75
2022/01/02 12:44:30;;;;;;;5.63;3.38;;;;;;;11.11;71.32;99858.97;8658384;33;20141;-75
2022/01/02 12:49:40;;;;;;;7.00;3.97;;;;;;;11.13;71.51;99874.00;8657904;33;20141;-74
2022/01/02 12:54:45;;;;;;;4.72;4.10;;;;;;;10.98;72.90;99851.19;8658224;33;20176;-74
2022/01/02 12:59:50;;;;;;;5.53;3.58;;;;;;;10.86;72.61;99871.09;8658151;33;21036;-75
2022/01/02 13:04:57;;;;;;;5.20;3.83;;;;;;;10.96;72.67;99877.34;8656960;33;20203;-74
2022/01/02 13:10:02;;;;;;;5.85;3.38;;;;;;;10.78;72.39;99861.06;8638946;33;20239;-74
2022/01/02 13:15:08;;;;;;;6.53;4.53;;;;;;;10.78;73.19;99883.41;8628993;33;20506;-75
2022/01/02 13:20:16;;;;;;;5.22;4.20;;;;;;;10.75;73.01;99872.06;8621921;33;22173;-75
2022/01/02 13:25:24;;;;;;;8.55;4.38;;;;;;;10.67;73.55;99871.91;8654649;33;20312;-75
2022/01/02 13:30:30;;;;;;;7.68;4.40;;;;;;;10.90;72.76;99859.09;8654745;33;20189;-74
2022/01/02 13:35:34;;;;;;;7.75;4.60;;;;;;;10.74;72.98;99868.53;8651019;33;20198;-74
2022/01/02 13:40:38;;;;;;;7.63;5.00;;;;;;;10.92;72.61;99863.34;8650157;33;20449;-75
2022/01/02 13:45:43;;;;;;;9.25;4.13;;;;;;;10.66;73.18;99862.16;8630520;33;20211;-75
2022/01/02 13:50:52;;;;;;;5.00;4.50;;;;;;;10.73;73.48;99866.84;8653040;33;20665;-75
2022/01/02 13:56:09;;;;;;;6.40;3.97;;;;;;;10.68;73.59;99877.16;8653929;33;20180;-75
2022/01/02 14:01:18;;;;;;;13.32;8.57;;;;;;;10.92;73.12;99871.41;8657073;33;20186;-75
2022/01/02 14:06:31;;;;;;;8.15;4.38;;;;;;;10.87;72.82;99875.50;8658752;33;20219;-75
2022/01/02 14:11:37;;;;;;;5.50;3.63;;;;;;;10.55;73.07;99888.13;8656597;33;20745;-75
2022/01/02 14:17:14;;;;;;;7.95;4.30;;;;;;;10.81;72.67;99899.25;8655129;33;20543;-75
2022/01/02 14:22:22;;;;;;;8.10;4.50;;;;;;;10.66;73.07;99886.31;8658083;33;20169;-75
2022/01/02 14:27:28;;;;;;;8.20;4.63;;;;;;;10.83;72.20;99889.22;8602837;33;21630;-75
2022/01/02 14:32:31;;;;;;;6.30;3.63;;;;;;;10.64;72.27;99878.44;8601759;33;20284;-75
2022/01/02 14:37:36;;;;;;;7.57;3.40;;;;;;;10.70;72.10;99885.09;8601533;33;20185;-75
2022/01/02 14:42:40;;;;;;;7.15;4.35;;;;;;;10.91;71.81;99887.66;8601411;33;20572;-75
2022/01/02 14:47:43;;;;;;;5.15;3.10;;;;;;;10.72;71.83;99875.88;8603308;33;20523;-75
2022/01/02 14:52:48;;;;;;;4.38;3.03;;;;;;;10.65;72.30;99874.75;8602041;33;20158;-75
2022/01/02 14:57:51;;;;;;;14.05;3.80;;;;;;;10.70;72.15;99885.09;8613082;33;20282;-75
2022/01/02 15:02:54;;;;;;;6.13;3.63;;;;;;;10.76;71.62;99881.84;8657804;33;21442;-75
2022/01/02 15:07:59;;;;;;;7.82;3.78;;;;;;;10.61;72.19;99878.66;8657324;33;20212;-75
2022/01/02 15:13:02;;;;;;;6.15;3.97;;;;;;;10.75;71.43;99898.94;8657490;33;20218;-75
2022/01/02 15:18:05;;;;;;;5.22;3.95;;;;;;;10.75;71.55;99899.81;8657587;33;20235;-75
2022/01/02 15:23:09;;;;;;;6.90;3.83;;;;;;;10.66;72.01;99915.88;8657150;33;20258;-75
2022/01/02 15:28:13;;;;;;;8.75;3.90;;;;;;;10.58;72.52;99906.66;8653730;33;20226;-75
2022/01/02 15:33:16;;;;;;;5.22;4.38;;;;;;;10.61;72.24;99916.28;8656828;33;20169;-75
2022/01/02 15:38:20;;;;;;;6.45;3.97;;;;;;;10.55;72.55;99919.50;8657446;33;20250;-75
2022/01/02 15:43:23;;;;;;;4.20;3.75;;;;;;;10.69;71.93;99950.50;8657749;33;20764;-75
2022/01/02 15:48:27;;;;;;;7.32;4.35;;;;;;;10.71;72.00;99943.19;8657062;33;20296;-75
2022/01/02 15:53:31;;;;;;;8.23;5.18;;;;;;;10.68;72.33;99951.50;8658499;33;20188;-75
2022/01/02 15:58:34;;;;;;;6.22;4.97;;;;;;;10.69;71.90;99945.16;8656313;33;20701;-75
2022/01/02 16:03:38;;;;;;;6.63;3.65;;;;;;;10.52;72.52;99949.31;8656666;33;21648;-75
2022/01/02 16:08:43;;;;;;;9.32;4.75;;;;;;;10.56;72.53;99951.63;8657914;33;20196;-75
2022/01/02 16:13:47;;;;;;;10.38;3.53;;;;;;;10.36;72.86;99941.75;8637754;33;20179;-75
2022/01/02 16:18:50;;;;;;;6.55;4.07;;;;;;;10.32;73.29;99957.28;8656966;33;20452;-74
2022/01/02 16:24:15;;;;;;;3.95;3.13;;;;;;;10.28;73.33;99944.25;8657642;33;20985;-75
2022/01/02 16:29:25;;;;;;;5.57;2.95;;;;;;;10.20;73.33;99941.38;8645033;33;20172;-75
2022/01/02 16:34:30;;;;;;;5.68;4.38;;;;;;;10.38;73.09;99943.31;8658288;33;20211;-74
2022/01/02 16:39:34;;;;;;;6.90;5.03;;;;;;;10.14;73.79;99940.91;8657870;33;20160;-75
2022/01/02 16:44:38;;;;;;;6.78;3.78;;;;;;;9.94;73.84;99950.69;8658171;33;20144;-76
2022/01/02 16:49:40;;;;;;;5.10;3.72;;;;;;;10.06;73.29;99927.31;8658675;33;20171;-74
2022/01/02 16:54:45;;;;;;;8.65;3.95;;;;;;;10.16;72.95;99933.59;8643341;33;20692;-74
2022/01/02 16:59:48;;;;;;;6.28;4.10;;;;;;;10.25;73.31;99937.31;8657584;33;20227;-75
2022/01/02 17:04:52;;;;;;;6.45;4.85;;;;;;;10.43;72.82;99942.09;8655815;33;20266;-75
2022/01/02 17:09:57;;;;;;;6.20;5.07;;;;;;;10.34;73.55;99935.69;8655197;33;20639;-74
2022/01/02 17:15:00;;;;;;;8.52;4.90;;;;;;;10.46;72.87;99939.13;8656319;33;21514;-75
2022/01/02 17:20:05;;;;;;;9.35;5.80;;;;;;;10.50;73.13;99932.50;8656512;33;20180;-76
2022/01/02 17:25:12;;;;;;;8.63;5.13;;;;;;;9.91;78.07;99932.19;8657596;33;20137;-76
2022/01/02 17:30:19;;;;;;;10.65;7.43;;;;;;;9.57;80.47;99927.94;8659203;33;20319;-75
2022/01/02 17:35:23;;;;;;;10.60;7.45;;;;;;;9.69;81.39;99932.28;8662659;33;20153;-76
2022/01/02 17:40:28;;;;;;;9.05;6.18;;;;;;;9.35;82.62;99927.06;8662524;33;20180;-75
2022/01/02 17:45:31;;;;;;;8.25;6.43;;;;;;;9.52;81.85;99939.06;8648855;33;20145;-76
2022/01/02 17:50:35;;;;;;;10.73;6.15;;;;;;;9.49;81.60;99920.56;8661575;33;20137;-75
2022/01/02 17:55:39;;;;;;;8.98;6.32;;;;;;;9.35;82.12;99912.78;8661371;33;20184;-75
2022/01/02 18:00:42;;;;;;;12.70;6.32;;;;;;;9.54;81.62;99925.50;8648189;33;20164;-75
2022/01/02 18:05:45;;;;;;;10.20;7.22;;;;;;;9.55;81.69;99908.47;8662913;33;20211;-75
2022/01/02 18:10:50;;;;;;;12.55;8.73;;;;;;;9.55;81.69;99895.91;8661894;33;20213;-75
2022/01/02 18:15:53;;;;;;;14.10;8.68;;;;;;;9.36;82.59;99901.09;8661475;33;20180;-75
2022/01/02 18:20:56;;;;;;;12.15;8.80;;;;;;;9.65;81.92;99901.31;8661342;33;20719;-75
2022/01/02 18:26:00;;;;;;;10.65;7.38;;;;;;;9.51;81.11;99900.66;8661530;33;20184;-76
2022/01/02 18:31:03;;;;;;;9.45;6.70;;;;;;;9.66;80.70;99895.00;8660698;33;20141;-75
2022/01/02 18:36:06;;;;;;;11.63;6.00;;;;;;;9.54;80.49;99890.66;8660927;33;20202;-76
2022/01/02 18:41:11;;;;;;;11.57;6.57;;;;;;;9.70;80.10;99873.13;8659317;33;20188;-75
2022/01/02 18:46:14;;;;;;;9.05;6.18;;;;;;;9.78;79.31;99893.09;8655788;33;20632;-75
2022/01/02 18:51:19;;;;;;;9.13;6.10;;;;;;;9.79;78.87;99876.88;8660675;33;20191;-75
2022/01/02 18:56:23;;;;;;;9.98;5.18;;;;;;;9.84;78.31;99873.78;8659362;33;20230;-75
2022/01/02 19:01:29;;;;;;;9.00;5.10;;;;;;;9.85;77.58;99864.75;8658907;33;20258;-75
2022/01/02 19:06:33;;;;;;;5.63;4.00;;;;;;;9.72;77.69;99875.69;8655683;33;20669;-76
2022/01/02 19:11:37;;;;;;;12.63;5.32;;;;;;;9.83;77.10;99866.72;8642210;33;20214;-75
2022/01/02 19:16:40;;;;;;;4.65;3.75;;;;;;;10.19;75.13;99849.28;8660740;33;20434;-75
2022/01/02 19:21:45;;;;;;;5.90;3.92;;;;;;;9.89;76.18;99845.59;8659202;33;20145;-75
2022/01/02 19:26:49;;;;;;;5.72;4.00;;;;;;;10.01;75.56;99846.38;8650791;33;20188;-75
2022/01/02 19:31:56;;;;;;;8.23;4.97;;;;;;;10.09;75.45;99841.19;8631533;33;20168;-76
2022/01/02 19:36:59;;;;;;;5.20;3.83;;;;;;;10.14;75.23;99827.34;8629489;33;20298;-75
2022/01/02 19:42:05;;;;;;;7.60;4.55;;;;;;;10.10;75.57;99828.63;8659474;33;20691;-76
2022/01/02 19:47:09;;;;;;;8.38;5.07;;;;;;;10.23;74.90;99825.69;8658810;33;22827;-75
2022/01/02 19:52:12;;;;;;;7.25;3.78;;;;;;;9.86;76.25;99813.69;8659019;33;20153;-75
2022/01/02 19:57:17;;;;;;;8.25;4.40;;;;;;;10.10;75.11;99815.22;8657617;33;20202;-75
2022/01/02 20:02:20;;;;;;;7.25;4.13;;;;;;;10.35;74.34;99809.34;8654559;33;20634;-75
2022/01/02 20:07:25;;;;;;;7.63;4.60;;;;;;;10.15;74.47;99802.25;8655734;33;20180;-75
2022/01/02 20:12:30;;;;;;;8.18;4.32;;;;;;;10.08;74.54;99801.06;8656660;33;20189;-75
2022/01/02 20:17:36;;;;;;;6.90;4.80;;;;;;;9.99;74.88;99797.38;8652943;33;20789;-76
2022/01/02 20:22:39;;;;;;;5.10;3.53;;;;;;;9.96;75.42;99778.03;8655251;33;20180;-75
2022/01/02 20:27:43;;;;;;;6.45;4.25;;;;;;;10.01;75.32;99794.53;8654173;33;20275;-75
2022/01/02 20:32:46;;;;;;;3.70;2.42;;;;;;;9.49;77.07;99782.00;8655307;33;20141;-75
2022/01/02 20:37:49;;;;;;;7.30;3.05;;;;;;;9.42;79.38;99766.56;8655922;33;20152;-75
2022/01/02 20:42:56;;;;;;;5.55;3.08;;;;;;;9.10;82.39;99743.34;8655384;33;20192;-74
2022/01/02 20:48:07;;;;;;;8.23;3.55;;;;;;;8.82;83.49;99726.94;8656344;33;20540;-75
2022/01/02 20:53:11;;;;;;;3.67;2.60;;;;;;;8.62;83.63;99743.84;8653977;33;20188;-75
2022/01/02 20:58:16;;;;;;;4.53;3.17;;;;;;;9.24;80.91;99724.28;8655467;33;20661;-76
2022/01/02 21:03:20;;;;;;;3.90;3.17;;;;;;;9.18;80.71;99731.97;8655734;33;21648;-75
2022/01/02 21:08:24;;;;;;;4.43;2.70;;;;;;;8.94;80.74;99727.75;8654542;33;20144;-77
2022/01/02 21:13:29;;;;;;;4.82;3.15;;;;;;;9.28;78.99;99720.34;8655757;33;20141;-76
2022/01/02 21:18:34;;;;;;;2.60;1.92;;;;;;;9.10;78.52;99729.94;8644868;33;20149;-75
2022/01/02 21:23:37;;;;;;;3.38;1.70;;;;;;;8.87;78.92;99739.94;8629787;33;20230;-76
2022/01/02 21:28:41;;;;;;;1.67;1.58;;;;;;;8.20;84.78;99729.44;8655155;33;20137;-74
2022/01/02 21:33:45;;;;;;;3.30;1.80;;;;;;;7.55;88.44;99760.47;8654941;33;20145;-74
2022/01/02 21:38:49;;;;;;;4.32;2.10;;;;;;;7.58;89.46;99721.00;8655411;33;20165;-74
2022/01/02 21:43:53;;;;;;;1.70;1.60;;;;;;;7.19;90.63;99738.34;8656422;33;20570;-74
2022/01/02 21:48:56;;;;;;;3.03;1.57;;;;;;;7.08;90.47;99727.63;8495383;33;20485;-75
2022/01/02 21:54:01;;;;;;;1.90;1.50;;;;;;;6.81;93.58;99718.88;8485987;33;21006;-74
2022/01/02 21:59:05;;;;;;;1.65;1.30;;;;;;;6.34;99.12;99736.66;8487688;33;20207;-75
2022/01/02 22:04:09;;;;;;;1.35;1.25;;;;;;;6.39;98.98;99755.00;8497924;33;20534;-75
2022/01/02 22:09:13;;;;;;;1.83;1.60;;;;;;;6.54;98.67;99715.63;8497751;33;20411;-75
2022/01/02 22:14:17;;;;;;;2.50;1.50;;;;;;;6.66;95.31;99698.69;8490682;33;20640;-75
2022/01/02 22:19:21;;;;;;;1.60;1.50;;;;;;;6.76;94.57;99651.66;8485606;33;20474;-74
2022/01/02 22:24:28;;;;;;;1.27;1.10;;;;;;;6.62;94.07;99673.22;8489567;33;20530;-73
2022/01/02 22:29:33;;;;;;;2.65;1.40;;;;;;;6.77;94.71;99680.03;8450307;33;20149;-74
2022/01/02 22:34:37;;;;;;;1.23;1.17;;;;;;;6.90;93.43;99612.41;8488007;33;20435;-74
2022/01/02 22:39:40;;;;;;;1.90;1.70;;;;;;;7.03;93.33;99613.97;8482567;33;20668;-73
2022/01/02 22:44:45;;;;;;;3.00;2.00;;;;;;;6.97;93.45;99627.81;8487490;33;20363;-74
2022/01/02 22:49:53;;;;;;;2.40;1.67;;;;;;;6.88;92.98;99639.19;8483652;33;20184;-75
2022/01/02 22:54:57;;;;;;;2.25;2.05;;;;;;;6.99;91.75;99663.28;8486286;33;20234;-74
2022/01/02 23:00:04;;;;;;;3.88;2.90;;;;;;;7.15;91.25;99648.72;8487901;33;20184;-75
2022/01/02 23:05:07;;;;;;;3.90;3.05;;;;;;;7.24;91.60;99638.16;8486348;33;20167;-74
2022/01/02 23:10:10;;;;;;;2.80;2.28;;;;;;;7.18;91.37;99649.31;8487538;33;20262;-74
2022/01/02 23:15:15;;;;;;;5.47;4.00;;;;;;;7.38;90.84;99655.78;8488009;33;21190;-74
2022/01/02 23:20:19;;;;;;;4.88;4.18;;;;;;;7.46;90.44;99655.13;8489247;33;20240;-74
2022/01/02 23:25:23;;;;;;;3.92;2.72;;;;;;;7.51;89.99;99660.97;8483600;33;21067;-73
2022/01/02 23:30:27;;;;;;;4.32;2.97;;;;;;;7.58;89.09;99659.53;8477375;33;20328;-73
2022/01/02 23:35:33;;;;;;;4.25;2.72;;;;;;;7.45;88.72;99666.81;8478269;33;20156;-73
2022/01/02 23:40:38;;;;;;;3.33;2.58;;;;;;;7.69;88.15;99654.16;8482693;33;20438;-73
2022/01/02 23:45:57;;;;;;;6.55;2.60;;;;;;;7.80;87.07;99657.81;8484803;33;20153;-74
2022/01/02 23:51:01;;;;;;;2.75;2.15;;;;;;;7.60;87.01;99673.63;8481948;33;20452;-73
2022/01/02 23:56:06;;;;;;;2.47;1.90;;;;;;;7.67;85.89;99677.47;8477071;33;20157;-73
